Aviation Digital Data Service (ADDS)

Output produced by TAFs form (0223 UTC 11 February 2016)
found at http://aviationweather.gov/adds/tafs/
 
KLVS 102339Z 1100/1124 34010KT P6SM SKC 
     FM110130 33006KT P6SM SKC 
     FM110400 03007KT P6SM SKC 
     FM111500 17007KT P6SM SKC